sensor_id;sensor_type;location;lat;lon;timestamp;P1;durP1;ratioP1;P2;durP2;ratioP2
37859;SDS011;23698;52.014;5.190;2023-11-22T00:01:55;26.73;;;12.75;;
37859;SDS011;23698;52.014;5.190;2023-11-22T00:04:41;27.88;;;13.13;;
37859;SDS011;23698;52.014;5.190;2023-11-22T00:07:28;29.55;;;14.95;;
37859;SDS011;23698;52.014;5.190;2023-11-22T00:10:14;29.10;;;13.43;;
37859;SDS011;23698;52.014;5.190;2023-11-22T00:13:02;26.20;;;13.02;;
37859;SDS011;23698;52.014;5.190;2023-11-22T00:15:48;26.25;;;13.23;;
37859;SDS011;23698;52.014;5.190;2023-11-22T00:18:35;28.38;;;13.70;;
37859;SDS011;23698;52.014;5.190;2023-11-22T00:21:24;24.50;;;12.90;;
37859;SDS011;23698;52.014;5.190;2023-11-22T00:24:10;28.85;;;13.07;;
37859;SDS011;23698;52.014;5.190;2023-11-22T00:26:57;29.85;;;14.00;;
37859;SDS011;23698;52.014;5.190;2023-11-22T00:29:45;28.02;;;13.18;;
37859;SDS011;23698;52.014;5.190;2023-11-22T00:32:32;27.15;;;13.52;;
37859;SDS011;23698;52.014;5.190;2023-11-22T00:35:19;27.02;;;12.77;;
37859;SDS011;23698;52.014;5.190;2023-11-22T00:38:06;27.85;;;13.65;;
37859;SDS011;23698;52.014;5.190;2023-11-22T00:40:52;29.65;;;13.60;;
37859;SDS011;23698;52.014;5.190;2023-11-22T00:43:38;23.70;;;13.32;;
37859;SDS011;23698;52.014;5.190;2023-11-22T00:46:26;30.65;;;13.63;;
37859;SDS011;23698;52.014;5.190;2023-11-22T00:49:12;23.20;;;12.50;;
37859;SDS011;23698;52.014;5.190;2023-11-22T00:51:59;26.88;;;13.23;;
37859;SDS011;23698;52.014;5.190;2023-11-22T00:54:48;23.98;;;12.27;;
37859;SDS011;23698;52.014;5.190;2023-11-22T00:57:34;28.77;;;13.48;;
37859;SDS011;23698;52.014;5.190;2023-11-22T01:00:22;29.67;;;13.52;;
37859;SDS011;23698;52.014;5.190;2023-11-22T01:03:10;28.05;;;12.43;;
37859;SDS011;23698;52.014;5.190;2023-11-22T01:05:58;30.55;;;13.45;;
37859;SDS011;23698;52.014;5.190;2023-11-22T01:08:44;23.02;;;13.32;;
37859;SDS011;23698;52.014;5.190;2023-11-22T01:11:32;25.20;;;12.93;;
37859;SDS011;23698;52.014;5.190;2023-11-22T01:14:19;29.55;;;14.13;;
37859;SDS011;23698;52.014;5.190;2023-11-22T01:17:06;31.23;;;13.02;;
37859;SDS011;23698;52.014;5.190;2023-11-22T01:19:54;29.83;;;13.93;;
37859;SDS011;23698;52.014;5.190;2023-11-22T01:22:41;25.40;;;12.80;;
37859;SDS011;23698;52.014;5.190;2023-11-22T01:25:27;27.13;;;13.57;;
37859;SDS011;23698;52.014;5.190;2023-11-22T01:28:14;26.23;;;13.90;;
37859;SDS011;23698;52.014;5.190;2023-11-22T01:31:00;23.92;;;12.85;;
37859;SDS011;23698;52.014;5.190;2023-11-22T01:33:48;28.88;;;12.90;;
37859;SDS011;23698;52.014;5.190;2023-11-22T01:36:37;29.00;;;12.43;;
37859;SDS011;23698;52.014;5.190;2023-11-22T01:39:27;26.02;;;12.73;;
37859;SDS011;23698;52.014;5.190;2023-11-22T01:42:14;26.60;;;13.38;;
37859;SDS011;23698;52.014;5.190;2023-11-22T01:45:00;34.75;;;12.93;;
37859;SDS011;23698;52.014;5.190;2023-11-22T01:47:46;25.85;;;12.45;;
37859;SDS011;23698;52.014;5.190;2023-11-22T01:50:32;28.17;;;14.43;;
37859;SDS011;23698;52.014;5.190;2023-11-22T01:53:21;26.30;;;12.45;;
37859;SDS011;23698;52.014;5.190;2023-11-22T01:56:08;28.52;;;13.80;;
37859;SDS011;23698;52.014;5.190;2023-11-22T01:58:55;26.83;;;13.98;;
37859;SDS011;23698;52.014;5.190;2023-11-22T02:01:43;27.83;;;13.77;;
37859;SDS011;23698;52.014;5.190;2023-11-22T02:04:31;26.98;;;12.85;;
37859;SDS011;23698;52.014;5.190;2023-11-22T02:07:17;33.78;;;13.85;;
37859;SDS011;23698;52.014;5.190;2023-11-22T02:10:07;26.23;;;13.45;;
37859;SDS011;23698;52.014;5.190;2023-11-22T02:12:54;29.23;;;13.20;;
37859;SDS011;23698;52.014;5.190;2023-11-22T02:15:41;27.02;;;13.82;;
37859;SDS011;23698;52.014;5.190;2023-11-22T02:18:28;26.67;;;12.57;;
37859;SDS011;23698;52.014;5.190;2023-11-22T02:21:16;28.45;;;14.75;;
37859;SDS011;23698;52.014;5.190;2023-11-22T02:24:05;29.98;;;13.00;;
37859;SDS011;23698;52.014;5.190;2023-11-22T02:26:52;26.52;;;13.57;;
37859;SDS011;23698;52.014;5.190;2023-11-22T02:29:38;32.40;;;12.77;;
37859;SDS011;23698;52.014;5.190;2023-11-22T02:32:25;27.90;;;12.52;;
37859;SDS011;23698;52.014;5.190;2023-11-22T02:35:13;26.60;;;13.65;;
37859;SDS011;23698;52.014;5.190;2023-11-22T02:38:01;26.92;;;11.68;;
37859;SDS011;23698;52.014;5.190;2023-11-22T02:40:48;23.30;;;12.23;;
37859;SDS011;23698;52.014;5.190;2023-11-22T02:43:35;22.85;;;11.93;;
37859;SDS011;23698;52.014;5.190;2023-11-22T02:46:22;21.40;;;11.82;;
37859;SDS011;23698;52.014;5.190;2023-11-22T02:49:08;23.75;;;12.07;;
37859;SDS011;23698;52.014;5.190;2023-11-22T02:51:55;26.40;;;12.90;;
37859;SDS011;23698;52.014;5.190;2023-11-22T02:54:42;25.75;;;12.35;;
37859;SDS011;23698;52.014;5.190;2023-11-22T02:57:32;28.52;;;13.30;;
37859;SDS011;23698;52.014;5.190;2023-11-22T03:00:18;21.90;;;11.00;;
37859;SDS011;23698;52.014;5.190;2023-11-22T03:03:05;24.65;;;11.73;;
37859;SDS011;23698;52.014;5.190;2023-11-22T03:05:55;24.73;;;11.40;;
37859;SDS011;23698;52.014;5.190;2023-11-22T03:08:41;22.25;;;11.48;;
37859;SDS011;23698;52.014;5.190;2023-11-22T03:11:29;23.92;;;11.38;;
37859;SDS011;23698;52.014;5.190;2023-11-22T03:14:18;22.20;;;10.93;;
37859;SDS011;23698;52.014;5.190;2023-11-22T03:17:05;23.88;;;11.38;;
37859;SDS011;23698;52.014;5.190;2023-11-22T03:19:51;20.67;;;10.15;;
37859;SDS011;23698;52.014;5.190;2023-11-22T03:22:38;25.42;;;11.73;;
37859;SDS011;23698;52.014;5.190;2023-11-22T03:25:24;22.98;;;12.10;;
37859;SDS011;23698;52.014;5.190;2023-11-22T03:28:11;23.70;;;11.68;;
37859;SDS011;23698;52.014;5.190;2023-11-22T03:30:59;21.48;;;10.95;;
37859;SDS011;23698;52.014;5.190;2023-11-22T03:33:45;25.98;;;12.27;;
37859;SDS011;23698;52.014;5.190;2023-11-22T03:36:31;24.75;;;11.10;;
37859;SDS011;23698;52.014;5.190;2023-11-22T03:39:17;24.45;;;11.65;;
37859;SDS011;23698;52.014;5.190;2023-11-22T03:42:05;31.33;;;14.85;;
37859;SDS011;23698;52.014;5.190;2023-11-22T03:44:51;27.20;;;12.65;;
37859;SDS011;23698;52.014;5.190;2023-11-22T03:47:39;27.77;;;13.48;;
37859;SDS011;23698;52.014;5.190;2023-11-22T03:50:26;29.85;;;13.70;;
37859;SDS011;23698;52.014;5.190;2023-11-22T03:53:12;25.95;;;12.98;;
37859;SDS011;23698;52.014;5.190;2023-11-22T03:55:58;27.95;;;12.48;;
37859;SDS011;23698;52.014;5.190;2023-11-22T03:58:45;31.48;;;14.00;;
37859;SDS011;23698;52.014;5.190;2023-11-22T04:01:31;30.63;;;13.65;;
37859;SDS011;23698;52.014;5.190;2023-11-22T04:04:19;30.88;;;14.38;;
37859;SDS011;23698;52.014;5.190;2023-11-22T04:07:06;28.65;;;13.30;;
37859;SDS011;23698;52.014;5.190;2023-11-22T04:09:52;30.05;;;13.27;;
37859;SDS011;23698;52.014;5.190;2023-11-22T04:12:39;28.23;;;13.90;;
37859;SDS011;23698;52.014;5.190;2023-11-22T04:15:25;31.63;;;14.13;;
37859;SDS011;23698;52.014;5.190;2023-11-22T04:18:12;32.03;;;14.10;;
37859;SDS011;23698;52.014;5.190;2023-11-22T04:21:00;27.95;;;13.55;;
37859;SDS011;23698;52.014;5.190;2023-11-22T04:23:48;32.58;;;14.00;;
37859;SDS011;23698;52.014;5.190;2023-11-22T04:26:34;30.90;;;13.07;;
37859;SDS011;23698;52.014;5.190;2023-11-22T04:29:21;29.40;;;13.63;;
37859;SDS011;23698;52.014;5.190;2023-11-22T04:32:07;30.10;;;13.68;;
37859;SDS011;23698;52.014;5.190;2023-11-22T04:34:55;24.75;;;13.35;;
37859;SDS011;23698;52.014;5.190;2023-11-22T04:37:43;29.75;;;13.77;;
37859;SDS011;23698;52.014;5.190;2023-11-22T04:40:31;30.80;;;13.40;;
37859;SDS011;23698;52.014;5.190;2023-11-22T04:43:18;26.15;;;12.98;;
37859;SDS011;23698;52.014;5.190;2023-11-22T04:46:06;25.50;;;12.52;;
37859;SDS011;23698;52.014;5.190;2023-11-22T04:48:53;25.25;;;12.75;;
37859;SDS011;23698;52.014;5.190;2023-11-22T04:51:40;28.65;;;14.02;;
37859;SDS011;23698;52.014;5.190;2023-11-22T04:54:29;26.13;;;12.43;;
37859;SDS011;23698;52.014;5.190;2023-11-22T04:57:16;24.17;;;12.10;;
37859;SDS011;23698;52.014;5.190;2023-11-22T05:00:03;27.45;;;12.85;;
37859;SDS011;23698;52.014;5.190;2023-11-22T05:02:52;28.58;;;12.93;;
37859;SDS011;23698;52.014;5.190;2023-11-22T05:05:39;24.27;;;11.50;;
37859;SDS011;23698;52.014;5.190;2023-11-22T05:08:25;25.35;;;12.43;;
37859;SDS011;23698;52.014;5.190;2023-11-22T05:11:13;27.23;;;13.45;;
37859;SDS011;23698;52.014;5.190;2023-11-22T05:14:01;21.40;;;11.75;;
37859;SDS011;23698;52.014;5.190;2023-11-22T05:16:47;24.10;;;11.20;;
37859;SDS011;23698;52.014;5.190;2023-11-22T05:19:33;24.13;;;12.25;;
37859;SDS011;23698;52.014;5.190;2023-11-22T05:22:19;24.50;;;11.48;;
37859;SDS011;23698;52.014;5.190;2023-11-22T05:25:06;24.95;;;11.98;;
37859;SDS011;23698;52.014;5.190;2023-11-22T05:27:54;25.55;;;11.98;;
37859;SDS011;23698;52.014;5.190;2023-11-22T05:30:41;26.02;;;11.70;;
37859;SDS011;23698;52.014;5.190;2023-11-22T05:33:27;28.70;;;12.73;;
37859;SDS011;23698;52.014;5.190;2023-11-22T05:36:14;28.38;;;11.60;;
37859;SDS011;23698;52.014;5.190;2023-11-22T05:39:01;24.05;;;12.13;;
37859;SDS011;23698;52.014;5.190;2023-11-22T05:41:50;24.38;;;11.93;;
37859;SDS011;23698;52.014;5.190;2023-11-22T05:44:37;30.02;;;12.45;;
37859;SDS011;23698;52.014;5.190;2023-11-22T05:47:24;28.38;;;12.45;;
37859;SDS011;23698;52.014;5.190;2023-11-22T05:50:10;28.33;;;12.15;;
37859;SDS011;23698;52.014;5.190;2023-11-22T05:52:57;29.80;;;12.32;;
37859;SDS011;23698;52.014;5.190;2023-11-22T05:55:43;31.30;;;12.75;;
37859;SDS011;23698;52.014;5.190;2023-11-22T05:58:29;24.42;;;12.02;;
37859;SDS011;23698;52.014;5.190;2023-11-22T06:01:17;31.50;;;13.93;;
37859;SDS011;23698;52.014;5.190;2023-11-22T06:04:04;24.92;;;12.10;;
37859;SDS011;23698;52.014;5.190;2023-11-22T06:06:50;28.27;;;13.63;;
37859;SDS011;23698;52.014;5.190;2023-11-22T06:09:37;27.17;;;13.05;;
37859;SDS011;23698;52.014;5.190;2023-11-22T06:12:23;29.17;;;13.15;;
37859;SDS011;23698;52.014;5.190;2023-11-22T06:15:10;29.10;;;13.93;;
37859;SDS011;23698;52.014;5.190;2023-11-22T06:17:58;27.92;;;13.80;;
37859;SDS011;23698;52.014;5.190;2023-11-22T06:20:45;30.23;;;14.55;;
37859;SDS011;23698;52.014;5.190;2023-11-22T06:23:32;31.73;;;14.00;;
37859;SDS011;23698;52.014;5.190;2023-11-22T06:26:19;28.92;;;13.68;;
37859;SDS011;23698;52.014;5.190;2023-11-22T06:29:05;30.27;;;13.32;;
37859;SDS011;23698;52.014;5.190;2023-11-22T06:31:53;28.42;;;13.45;;
37859;SDS011;23698;52.014;5.190;2023-11-22T06:34:41;27.60;;;13.98;;
37859;SDS011;23698;52.014;5.190;2023-11-22T06:37:27;27.40;;;14.00;;
37859;SDS011;23698;52.014;5.190;2023-11-22T06:40:13;29.38;;;14.10;;
37859;SDS011;23698;52.014;5.190;2023-11-22T06:43:01;35.63;;;14.95;;
37859;SDS011;23698;52.014;5.190;2023-11-22T06:45:49;30.40;;;13.40;;
37859;SDS011;23698;52.014;5.190;2023-11-22T06:48:35;30.95;;;14.07;;
37859;SDS011;23698;52.014;5.190;2023-11-22T06:51:24;29.65;;;13.70;;
37859;SDS011;23698;52.014;5.190;2023-11-22T06:54:11;34.15;;;15.55;;
37859;SDS011;23698;52.014;5.190;2023-11-22T06:56:57;32.95;;;15.40;;
37859;SDS011;23698;52.014;5.190;2023-11-22T06:59:44;35.50;;;14.82;;
37859;SDS011;23698;52.014;5.190;2023-11-22T07:02:30;32.13;;;14.57;;
37859;SDS011;23698;52.014;5.190;2023-11-22T07:05:17;32.53;;;14.68;;
37859;SDS011;23698;52.014;5.190;2023-11-22T07:08:05;35.35;;;14.38;;
37859;SDS011;23698;52.014;5.190;2023-11-22T07:10:52;33.85;;;15.30;;
37859;SDS011;23698;52.014;5.190;2023-11-22T07:13:38;33.42;;;14.80;;
37859;SDS011;23698;52.014;5.190;2023-11-22T07:16:25;33.75;;;14.30;;
37859;SDS011;23698;52.014;5.190;2023-11-22T07:19:11;33.80;;;15.50;;
37859;SDS011;23698;52.014;5.190;2023-11-22T07:21:58;34.42;;;15.13;;
37859;SDS011;23698;52.014;5.190;2023-11-22T07:24:46;36.22;;;16.58;;
37859;SDS011;23698;52.014;5.190;2023-11-22T07:27:36;33.45;;;15.23;;
37859;SDS011;23698;52.014;5.190;2023-11-22T07:30:22;33.45;;;14.48;;
37859;SDS011;23698;52.014;5.190;2023-11-22T07:33:12;28.17;;;14.10;;
37859;SDS011;23698;52.014;5.190;2023-11-22T07:36:00;33.55;;;14.57;;
37859;SDS011;23698;52.014;5.190;2023-11-22T07:38:48;36.30;;;14.88;;
37859;SDS011;23698;52.014;5.190;2023-11-22T07:41:36;31.50;;;14.57;;
37859;SDS011;23698;52.014;5.190;2023-11-22T07:44:22;28.75;;;13.75;;
37859;SDS011;23698;52.014;5.190;2023-11-22T07:47:10;30.45;;;13.75;;
37859;SDS011;23698;52.014;5.190;2023-11-22T07:49:56;29.27;;;14.00;;
37859;SDS011;23698;52.014;5.190;2023-11-22T07:52:42;29.25;;;14.38;;
37859;SDS011;23698;52.014;5.190;2023-11-22T07:55:29;26.90;;;12.93;;
37859;SDS011;23698;52.014;5.190;2023-11-22T07:58:17;30.45;;;14.93;;
37859;SDS011;23698;52.014;5.190;2023-11-22T08:01:05;34.03;;;14.13;;
37859;SDS011;23698;52.014;5.190;2023-11-22T08:03:58;30.25;;;14.02;;
37859;SDS011;23698;52.014;5.190;2023-11-22T08:06:44;30.45;;;14.70;;
37859;SDS011;23698;52.014;5.190;2023-11-22T08:09:32;29.70;;;13.82;;
37859;SDS011;23698;52.014;5.190;2023-11-22T08:12:18;35.47;;;15.98;;
37859;SDS011;23698;52.014;5.190;2023-11-22T08:15:07;31.52;;;14.73;;
37859;SDS011;23698;52.014;5.190;2023-11-22T08:17:57;29.48;;;14.10;;
37859;SDS011;23698;52.014;5.190;2023-11-22T08:20:45;31.02;;;15.00;;
37859;SDS011;23698;52.014;5.190;2023-11-22T08:23:31;30.38;;;14.15;;
37859;SDS011;23698;52.014;5.190;2023-11-22T08:26:18;36.03;;;13.93;;
37859;SDS011;23698;52.014;5.190;2023-11-22T08:29:04;30.90;;;14.30;;
37859;SDS011;23698;52.014;5.190;2023-11-22T08:31:53;31.73;;;15.23;;
37859;SDS011;23698;52.014;5.190;2023-11-22T08:34:39;32.42;;;14.73;;
37859;SDS011;23698;52.014;5.190;2023-11-22T08:37:27;33.03;;;14.40;;
37859;SDS011;23698;52.014;5.190;2023-11-22T08:40:14;31.52;;;14.80;;
37859;SDS011;23698;52.014;5.190;2023-11-22T08:43:00;35.08;;;15.02;;
37859;SDS011;23698;52.014;5.190;2023-11-22T08:45:47;34.92;;;16.55;;
37859;SDS011;23698;52.014;5.190;2023-11-22T08:48:43;35.08;;;16.38;;
37859;SDS011;23698;52.014;5.190;2023-11-22T08:51:30;32.33;;;15.02;;
37859;SDS011;23698;52.014;5.190;2023-11-22T08:54:18;32.67;;;15.02;;
37859;SDS011;23698;52.014;5.190;2023-11-22T08:57:05;34.17;;;16.20;;
37859;SDS011;23698;52.014;5.190;2023-11-22T08:59:52;32.35;;;14.93;;
37859;SDS011;23698;52.014;5.190;2023-11-22T09:02:39;33.13;;;16.20;;
37859;SDS011;23698;52.014;5.190;2023-11-22T09:05:27;36.00;;;16.48;;
37859;SDS011;23698;52.014;5.190;2023-11-22T09:08:14;34.78;;;16.75;;
37859;SDS011;23698;52.014;5.190;2023-11-22T09:11:10;30.38;;;14.82;;
37859;SDS011;23698;52.014;5.190;2023-11-22T09:13:56;36.33;;;16.08;;
37859;SDS011;23698;52.014;5.190;2023-11-22T09:16:43;33.17;;;16.20;;
37859;SDS011;23698;52.014;5.190;2023-11-22T09:19:30;35.22;;;17.33;;
37859;SDS011;23698;52.014;5.190;2023-11-22T09:22:19;32.63;;;15.50;;
37859;SDS011;23698;52.014;5.190;2023-11-22T09:25:06;33.40;;;16.27;;
37859;SDS011;23698;52.014;5.190;2023-11-22T09:27:56;34.00;;;17.00;;
37859;SDS011;23698;52.014;5.190;2023-11-22T09:30:44;34.83;;;16.30;;
37859;SDS011;23698;52.014;5.190;2023-11-22T09:33:32;32.35;;;17.02;;
37859;SDS011;23698;52.014;5.190;2023-11-22T09:36:19;33.58;;;17.08;;
37859;SDS011;23698;52.014;5.190;2023-11-22T09:39:08;34.97;;;17.17;;
37859;SDS011;23698;52.014;5.190;2023-11-22T09:41:54;32.38;;;15.88;;
37859;SDS011;23698;52.014;5.190;2023-11-22T09:44:41;30.45;;;15.43;;
37859;SDS011;23698;52.014;5.190;2023-11-22T09:47:28;34.92;;;15.73;;
37859;SDS011;23698;52.014;5.190;2023-11-22T09:50:20;31.15;;;15.40;;
37859;SDS011;23698;52.014;5.190;2023-11-22T09:53:11;29.10;;;15.52;;
37859;SDS011;23698;52.014;5.190;2023-11-22T09:56:02;35.40;;;16.65;;
37859;SDS011;23698;52.014;5.190;2023-11-22T09:58:52;28.17;;;14.90;;
37859;SDS011;23698;52.014;5.190;2023-11-22T10:01:41;31.58;;;16.33;;
37859;SDS011;23698;52.014;5.190;2023-11-22T10:04:28;32.80;;;16.02;;
37859;SDS011;23698;52.014;5.190;2023-11-22T10:07:16;34.38;;;17.20;;
37859;SDS011;23698;52.014;5.190;2023-11-22T10:10:02;33.40;;;17.15;;
37859;SDS011;23698;52.014;5.190;2023-11-22T10:12:52;32.78;;;16.75;;
37859;SDS011;23698;52.014;5.190;2023-11-22T10:15:40;31.88;;;16.42;;
37859;SDS011;23698;52.014;5.190;2023-11-22T10:18:27;34.03;;;17.48;;
37859;SDS011;23698;52.014;5.190;2023-11-22T10:21:19;32.50;;;15.70;;
37859;SDS011;23698;52.014;5.190;2023-11-22T10:24:06;37.28;;;16.30;;
37859;SDS011;23698;52.014;5.190;2023-11-22T10:26:55;31.42;;;16.08;;
37859;SDS011;23698;52.014;5.190;2023-11-22T10:29:44;34.58;;;16.38;;
37859;SDS011;23698;52.014;5.190;2023-11-22T10:32:32;30.73;;;16.33;;
37859;SDS011;23698;52.014;5.190;2023-11-22T10:35:19;30.25;;;16.42;;
37859;SDS011;23698;52.014;5.190;2023-11-22T10:38:07;34.00;;;16.42;;
37859;SDS011;23698;52.014;5.190;2023-11-22T10:40:54;33.05;;;16.67;;
37859;SDS011;23698;52.014;5.190;2023-11-22T10:43:43;31.92;;;15.90;;
37859;SDS011;23698;52.014;5.190;2023-11-22T10:46:32;28.38;;;15.05;;
37859;SDS011;23698;52.014;5.190;2023-11-22T10:49:20;31.17;;;15.85;;
37859;SDS011;23698;52.014;5.190;2023-11-22T10:52:06;31.70;;;15.73;;
37859;SDS011;23698;52.014;5.190;2023-11-22T10:55:01;28.88;;;15.57;;
37859;SDS011;23698;52.014;5.190;2023-11-22T10:57:50;32.22;;;16.13;;
37859;SDS011;23698;52.014;5.190;2023-11-22T11:00:41;27.20;;;15.40;;
37859;SDS011;23698;52.014;5.190;2023-11-22T11:03:30;29.05;;;15.73;;
37859;SDS011;23698;52.014;5.190;2023-11-22T11:06:26;32.50;;;16.15;;
37859;SDS011;23698;52.014;5.190;2023-11-22T11:09:18;34.85;;;17.60;;
37859;SDS011;23698;52.014;5.190;2023-11-22T11:12:06;33.25;;;17.13;;
37859;SDS011;23698;52.014;5.190;2023-11-22T11:14:54;33.22;;;17.55;;
37859;SDS011;23698;52.014;5.190;2023-11-22T11:17:40;36.53;;;17.13;;
37859;SDS011;23698;52.014;5.190;2023-11-22T11:20:33;33.42;;;17.80;;
37859;SDS011;23698;52.014;5.190;2023-11-22T11:23:32;31.42;;;17.10;;
37859;SDS011;23698;52.014;5.190;2023-11-22T11:26:19;27.48;;;14.73;;
37859;SDS011;23698;52.014;5.190;2023-11-22T11:29:07;30.50;;;16.17;;
37859;SDS011;23698;52.014;5.190;2023-11-22T11:32:29;27.70;;;16.52;;
37859;SDS011;23698;52.014;5.190;2023-11-22T11:35:18;27.20;;;15.30;;
37859;SDS011;23698;52.014;5.190;2023-11-22T11:38:06;27.98;;;16.20;;
37859;SDS011;23698;52.014;5.190;2023-11-22T11:40:54;29.27;;;15.88;;
37859;SDS011;23698;52.014;5.190;2023-11-22T11:43:41;30.92;;;16.48;;
37859;SDS011;23698;52.014;5.190;2023-11-22T11:46:29;30.17;;;16.27;;
37859;SDS011;23698;52.014;5.190;2023-11-22T11:49:18;31.65;;;16.52;;
37859;SDS011;23698;52.014;5.190;2023-11-22T11:52:05;31.35;;;16.30;;
37859;SDS011;23698;52.014;5.190;2023-11-22T11:54:54;27.57;;;15.87;;
37859;SDS011;23698;52.014;5.190;2023-11-22T11:57:43;29.23;;;16.00;;
37859;SDS011;23698;52.014;5.190;2023-11-22T12:00:32;28.17;;;15.00;;
37859;SDS011;23698;52.014;5.190;2023-11-22T12:03:19;30.30;;;15.65;;
37859;SDS011;23698;52.014;5.190;2023-11-22T12:06:07;30.92;;;16.67;;
37859;SDS011;23698;52.014;5.190;2023-11-22T12:08:54;28.88;;;15.77;;
37859;SDS011;23698;52.014;5.190;2023-11-22T12:11:42;25.88;;;15.07;;
37859;SDS011;23698;52.014;5.190;2023-11-22T12:14:32;30.10;;;16.05;;
37859;SDS011;23698;52.014;5.190;2023-11-22T12:17:18;32.97;;;15.35;;
37859;SDS011;23698;52.014;5.190;2023-11-22T12:20:10;29.20;;;16.83;;
37859;SDS011;23698;52.014;5.190;2023-11-22T12:22:59;29.30;;;15.15;;
37859;SDS011;23698;52.014;5.190;2023-11-22T12:25:46;29.23;;;15.65;;
37859;SDS011;23698;52.014;5.190;2023-11-22T12:28:33;31.92;;;18.05;;
37859;SDS011;23698;52.014;5.190;2023-11-22T12:31:19;30.88;;;17.77;;
37859;SDS011;23698;52.014;5.190;2023-11-22T12:34:06;31.23;;;17.58;;
37859;SDS011;23698;52.014;5.190;2023-11-22T12:36:54;30.67;;;17.38;;
37859;SDS011;23698;52.014;5.190;2023-11-22T12:39:41;29.05;;;16.40;;
37859;SDS011;23698;52.014;5.190;2023-11-22T12:42:27;31.73;;;17.63;;
37859;SDS011;23698;52.014;5.190;2023-11-22T12:45:20;28.98;;;16.88;;
37859;SDS011;23698;52.014;5.190;2023-11-22T12:48:22;29.45;;;15.77;;
37859;SDS011;23698;52.014;5.190;2023-11-22T12:51:15;29.67;;;16.25;;
37859;SDS011;23698;52.014;5.190;2023-11-22T12:54:02;28.98;;;16.13;;
37859;SDS011;23698;52.014;5.190;2023-11-22T12:56:49;28.00;;;16.40;;
37859;SDS011;23698;52.014;5.190;2023-11-22T12:59:39;26.52;;;15.80;;
37859;SDS011;23698;52.014;5.190;2023-11-22T13:02:27;26.63;;;15.40;;
37859;SDS011;23698;52.014;5.190;2023-11-22T13:05:16;25.98;;;15.45;;
37859;SDS011;23698;52.014;5.190;2023-11-22T13:08:04;31.23;;;16.88;;
37859;SDS011;23698;52.014;5.190;2023-11-22T13:10:51;28.55;;;16.27;;
37859;SDS011;23698;52.014;5.190;2023-11-22T13:13:40;30.20;;;16.55;;
37859;SDS011;23698;52.014;5.190;2023-11-22T13:16:26;29.23;;;16.98;;
37859;SDS011;23698;52.014;5.190;2023-11-22T13:19:14;33.03;;;16.70;;
37859;SDS011;23698;52.014;5.190;2023-11-22T13:22:01;35.00;;;18.15;;
37859;SDS011;23698;52.014;5.190;2023-11-22T13:24:47;42.92;;;16.75;;
37859;SDS011;23698;52.014;5.190;2023-11-22T13:27:33;35.03;;;18.15;;
37859;SDS011;23698;52.014;5.190;2023-11-22T13:30:20;34.00;;;17.80;;
37859;SDS011;23698;52.014;5.190;2023-11-22T13:33:07;38.13;;;18.35;;
37859;SDS011;23698;52.014;5.190;2023-11-22T13:35:55;36.83;;;20.15;;
37859;SDS011;23698;52.014;5.190;2023-11-22T13:38:43;37.38;;;18.27;;
37859;SDS011;23698;52.014;5.190;2023-11-22T13:41:30;38.75;;;18.88;;
37859;SDS011;23698;52.014;5.190;2023-11-22T13:44:17;36.30;;;19.00;;
37859;SDS011;23698;52.014;5.190;2023-11-22T13:47:04;34.22;;;18.25;;
37859;SDS011;23698;52.014;5.190;2023-11-22T13:49:53;38.13;;;18.58;;
37859;SDS011;23698;52.014;5.190;2023-11-22T13:52:40;34.40;;;18.52;;
37859;SDS011;23698;52.014;5.190;2023-11-22T13:55:27;34.38;;;17.90;;
37859;SDS011;23698;52.014;5.190;2023-11-22T13:58:13;34.75;;;19.00;;
37859;SDS011;23698;52.014;5.190;2023-11-22T14:01:00;37.38;;;18.40;;
37859;SDS011;23698;52.014;5.190;2023-11-22T14:06:37;33.40;;;17.23;;
37859;SDS011;23698;52.014;5.190;2023-11-22T14:09:25;30.25;;;16.67;;
37859;SDS011;23698;52.014;5.190;2023-11-22T14:12:12;31.95;;;17.02;;
37859;SDS011;23698;52.014;5.190;2023-11-22T14:14:59;30.05;;;15.98;;
37859;SDS011;23698;52.014;5.190;2023-11-22T14:17:45;29.60;;;16.02;;
37859;SDS011;23698;52.014;5.190;2023-11-22T14:20:34;29.10;;;14.75;;
37859;SDS011;23698;52.014;5.190;2023-11-22T14:23:22;27.88;;;14.63;;
37859;SDS011;23698;52.014;5.190;2023-11-22T14:26:10;28.50;;;15.07;;
37859;SDS011;23698;52.014;5.190;2023-11-22T14:28:56;29.60;;;16.15;;
37859;SDS011;23698;52.014;5.190;2023-11-22T14:31:43;29.75;;;15.60;;
37859;SDS011;23698;52.014;5.190;2023-11-22T14:34:30;26.80;;;14.88;;
37859;SDS011;23698;52.014;5.190;2023-11-22T14:37:16;27.15;;;15.00;;
37859;SDS011;23698;52.014;5.190;2023-11-22T14:40:03;29.25;;;16.10;;
37859;SDS011;23698;52.014;5.190;2023-11-22T14:42:52;30.65;;;16.35;;
37859;SDS011;23698;52.014;5.190;2023-11-22T14:45:38;28.25;;;16.02;;
37859;SDS011;23698;52.014;5.190;2023-11-22T14:48:25;29.25;;;16.23;;
37859;SDS011;23698;52.014;5.190;2023-11-22T14:51:12;32.17;;;15.55;;
37859;SDS011;23698;52.014;5.190;2023-11-22T14:53:59;30.83;;;15.30;;
37859;SDS011;23698;52.014;5.190;2023-11-22T14:56:46;28.90;;;15.43;;
37859;SDS011;23698;52.014;5.190;2023-11-22T14:59:33;31.00;;;15.70;;
37859;SDS011;23698;52.014;5.190;2023-11-22T15:02:20;34.97;;;17.58;;
37859;SDS011;23698;52.014;5.190;2023-11-22T15:05:11;34.60;;;18.17;;
37859;SDS011;23698;52.014;5.190;2023-11-22T15:08:01;35.72;;;17.30;;
37859;SDS011;23698;52.014;5.190;2023-11-22T15:10:47;33.78;;;18.52;;
37859;SDS011;23698;52.014;5.190;2023-11-22T15:13:33;39.47;;;18.75;;
37859;SDS011;23698;52.014;5.190;2023-11-22T15:16:22;43.85;;;19.20;;
37859;SDS011;23698;52.014;5.190;2023-11-22T15:19:09;45.15;;;20.95;;
37859;SDS011;23698;52.014;5.190;2023-11-22T15:21:55;46.63;;;21.30;;
37859;SDS011;23698;52.014;5.190;2023-11-22T15:24:42;47.88;;;20.10;;
37859;SDS011;23698;52.014;5.190;2023-11-22T15:27:29;48.03;;;22.02;;
37859;SDS011;23698;52.014;5.190;2023-11-22T15:30:15;49.17;;;21.80;;
37859;SDS011;23698;52.014;5.190;2023-11-22T15:33:05;51.55;;;21.15;;
37859;SDS011;23698;52.014;5.190;2023-11-22T15:35:52;52.90;;;22.25;;
37859;SDS011;23698;52.014;5.190;2023-11-22T15:38:38;57.45;;;23.30;;
37859;SDS011;23698;52.014;5.190;2023-11-22T15:41:25;59.95;;;24.20;;
37859;SDS011;23698;52.014;5.190;2023-11-22T15:44:12;67.35;;;26.33;;
37859;SDS011;23698;52.014;5.190;2023-11-22T15:46:59;62.75;;;25.08;;
37859;SDS011;23698;52.014;5.190;2023-11-22T15:52:38;70.28;;;26.88;;
37859;SDS011;23698;52.014;5.190;2023-11-22T15:55:25;70.55;;;26.40;;
37859;SDS011;23698;52.014;5.190;2023-11-22T15:58:11;71.63;;;27.38;;
37859;SDS011;23698;52.014;5.190;2023-11-22T16:00:58;67.45;;;27.25;;
37859;SDS011;23698;52.014;5.190;2023-11-22T16:03:46;65.70;;;26.45;;
37859;SDS011;23698;52.014;5.190;2023-11-22T16:06:35;66.03;;;26.17;;
37859;SDS011;23698;52.014;5.190;2023-11-22T16:09:22;68.75;;;27.67;;
37859;SDS011;23698;52.014;5.190;2023-11-22T16:12:08;70.35;;;25.70;;
37859;SDS011;23698;52.014;5.190;2023-11-22T16:14:55;66.28;;;27.90;;
37859;SDS011;23698;52.014;5.190;2023-11-22T16:17:44;66.43;;;26.40;;
37859;SDS011;23698;52.014;5.190;2023-11-22T16:20:31;58.10;;;24.58;;
37859;SDS011;23698;52.014;5.190;2023-11-22T16:23:19;62.05;;;23.88;;
37859;SDS011;23698;52.014;5.190;2023-11-22T16:26:05;61.85;;;26.38;;